Deep River, Iowa
Current Conditions -  °F | °C
As of 6:15 AM on Monday 20 Oct 2014 (Local Time) from KGGI Reporting Station
Clear Clear  
Wind Chill: 41°   Ceiling: Unl
Heat Index: 44°   Visibility: 10mi
Dew Point: 41°   Wind: 7mph
Humidity: 87%   Direction: 320°NW
Pressure: 29.96"   Gusts: NA
Location:  41.58°N, 92.37°W
Report Text: KGGI 201115Z AUTO 32006KT 10SM CLR 07/05 A2996 RMK AO2 T00690048
Loading
Personal Weather Stations






























Interactive Weather Map New forecast layout! Learn more

10-Day Weather Forecast

Advertisements
Track Severe Weather on mobile